createdAt,value
2022-08-06T00:00:07.889Z,5.80
2022-08-06T00:02:51.760Z,6.30
2022-08-06T00:05:27.529Z,6.00
2022-08-06T00:08:02.403Z,7.20
2022-08-06T00:10:31.579Z,5.80
2022-08-06T00:13:02.049Z,5.70
2022-08-06T00:16:08.714Z,6.00
2022-08-06T00:18:22.241Z,6.00
2022-08-06T00:20:52.567Z,6.40
2022-08-06T00:23:24.541Z,6.10
2022-08-06T00:25:54.297Z,6.70
2022-08-06T00:28:30.891Z,5.70
2022-08-06T00:31:09.829Z,5.90
2022-08-06T00:33:50.132Z,5.60
2022-08-06T00:36:28.588Z,6.00
2022-08-06T00:39:07.591Z,5.90
2022-08-06T00:41:42.142Z,6.30
2022-08-06T00:44:15.409Z,6.20
2022-08-06T00:47:00.211Z,6.70
2022-08-06T00:49:48.814Z,6.90
2022-08-06T00:52:23.023Z,7.40
2022-08-06T00:54:54.397Z,6.80
2022-08-06T00:57:23.403Z,6.70
2022-08-06T00:59:54.764Z,6.20
2022-08-06T01:02:23.644Z,5.60
2022-08-06T01:05:06.877Z,6.30
2022-08-06T01:07:51.573Z,6.70
2022-08-06T01:10:30.902Z,6.30
2022-08-06T01:13:25.127Z,6.50
2022-08-06T01:16:13.175Z,6.50
2022-08-06T01:19:21.184Z,5.20
2022-08-06T01:22:33.232Z,7.30
2022-08-06T01:25:47.417Z,6.80
2022-08-06T01:28:43.684Z,6.90
2022-08-06T01:31:20.772Z,8.20
2022-08-06T01:34:02.250Z,7.50
2022-08-06T01:36:56.401Z,8.40
2022-08-06T01:39:53.445Z,10.60
2022-08-06T01:42:26.704Z,10.00
2022-08-06T01:45:14.920Z,9.70
2022-08-06T01:47:53.797Z,10.50
2022-08-06T01:50:28.997Z,9.90
2022-08-06T01:53:01.424Z,8.20
2022-08-06T01:55:56.237Z,9.70
2022-08-06T01:58:37.846Z,11.30
2022-08-06T02:01:13.493Z,10.50
2022-08-06T02:03:58.671Z,11.40
2022-08-06T02:06:32.851Z,10.90
2022-08-06T02:09:16.453Z,9.50
2022-08-06T02:12:03.602Z,9.70
2022-08-06T02:14:57.943Z,8.60
2022-08-06T02:18:04.320Z,8.00
2022-08-06T02:20:36.792Z,8.20
2022-08-06T02:23:09.820Z,8.10
2022-08-06T02:25:43.193Z,7.70
2022-08-06T02:28:24.957Z,9.30
2022-08-06T02:30:56.339Z,8.40
2022-08-06T02:33:32.371Z,8.70
2022-08-06T02:36:27.251Z,9.70
2022-08-06T02:38:59.573Z,9.90
2022-08-06T02:41:55.029Z,10.60
2022-08-06T02:44:54.458Z,11.70
2022-08-06T02:47:52.734Z,11.40
2022-08-06T02:50:18.814Z,12.80
2022-08-06T02:52:58.559Z,11.10
2022-08-06T02:55:34.280Z,11.30
2022-08-06T02:58:29.540Z,11.80
2022-08-06T03:01:15.447Z,10.10
2022-08-06T03:03:53.871Z,11.10
2022-08-06T03:06:31.158Z,10.20
2022-08-06T03:09:01.495Z,11.20
2022-08-06T03:11:34.249Z,10.90
2022-08-06T03:14:13.054Z,11.60
2022-08-06T03:16:57.823Z,11.10
2022-08-06T03:19:57.031Z,10.70
2022-08-06T03:22:39.003Z,10.70
2022-08-06T03:25:16.166Z,9.60
2022-08-06T03:27:46.269Z,9.70
2022-08-06T03:30:32.239Z,9.80
2022-08-06T03:33:28.311Z,10.70
2022-08-06T03:36:00.734Z,10.80
2022-08-06T03:38:42.328Z,10.80
2022-08-06T03:41:13.492Z,11.30
2022-08-06T03:44:02.622Z,11.00
2022-08-06T03:46:41.477Z,10.90
2022-08-06T03:49:13.273Z,12.90
2022-08-06T03:51:52.480Z,12.30
2022-08-06T03:54:34.197Z,12.30
2022-08-06T03:57:10.229Z,13.00
2022-08-06T03:59:44.141Z,10.60
2022-08-06T04:02:45.201Z,10.30
2022-08-06T04:05:21.274Z,10.00
2022-08-06T04:07:56.994Z,9.50
2022-08-06T04:10:57.073Z,9.00
2022-08-06T04:13:40.489Z,8.90
2022-08-06T04:16:32.874Z,8.20
2022-08-06T04:19:09.069Z,8.30
2022-08-06T04:23:05.862Z,6.70
2022-08-06T04:24:30.302Z,5.00
2022-08-06T04:27:05.016Z,4.80
2022-08-06T04:29:57.330Z,6.10
2022-08-06T04:32:32.310Z,4.50
2022-08-06T04:36:06.664Z,5.00
2022-08-06T04:37:54.172Z,3.80
2022-08-06T04:40:34.839Z,3.90
2022-08-06T04:43:07.687Z,4.20
2022-08-06T04:46:18.586Z,4.00
2022-08-06T04:48:34.329Z,3.70
2022-08-06T04:51:10.548Z,3.50
2022-08-06T04:53:57.282Z,3.20
2022-08-06T04:56:33.158Z,2.60
2022-08-06T04:59:15.368Z,2.20
2022-08-06T05:01:56.928Z,2.70
2022-08-06T05:04:32.347Z,2.60
2022-08-06T05:07:18.074Z,3.00
2022-08-06T05:09:54.196Z,3.70
2022-08-06T05:12:32.840Z,3.60
2022-08-06T05:15:22.116Z,3.40
2022-08-06T05:17:57.434Z,2.50
2022-08-06T05:20:32.969Z,2.50
2022-08-06T05:23:20.468Z,2.40
2022-08-06T05:25:56.618Z,2.30
2022-08-06T05:31:02.097Z,2.10
2022-08-06T05:33:38.788Z,1.80
2022-08-06T05:36:19.189Z,2.30
2022-08-06T05:38:59.128Z,2.30
2022-08-06T05:41:33.660Z,2.70
2022-08-06T05:44:07.779Z,2.90
2022-08-06T05:46:42.517Z,2.50
2022-08-06T05:49:55.630Z,2.00
2022-08-06T05:52:21.684Z,1.60
2022-08-06T05:54:59.469Z,2.30
2022-08-06T05:57:41.026Z,1.80
2022-08-06T06:00:31.915Z,1.50
2022-08-06T06:03:08.205Z,2.10
2022-08-06T06:06:04.419Z,2.00
2022-08-06T06:08:39.912Z,2.40
2022-08-06T06:11:18.987Z,2.40
2022-08-06T06:13:59.114Z,2.40
2022-08-06T06:16:34.226Z,1.90
2022-08-06T06:19:38.839Z,1.90
2022-08-06T06:22:19.398Z,1.80
2022-08-06T06:25:26.879Z,1.50
2022-08-06T06:28:11.005Z,2.10
2022-08-06T06:31:12.116Z,2.00
2022-08-06T06:34:04.628Z,1.70
2022-08-06T06:36:58.176Z,2.20
2022-08-06T06:39:39.505Z,2.30
2022-08-06T06:42:33.240Z,1.90
2022-08-06T06:46:06.352Z,2.30
2022-08-06T06:48:33.263Z,2.00
2022-08-06T06:51:27.270Z,1.70
2022-08-06T06:54:22.660Z,2.10
2022-08-06T06:57:13.889Z,2.10
2022-08-06T07:00:43.841Z,2.10
2022-08-06T07:03:00.914Z,2.30
2022-08-06T07:06:04.766Z,1.90
2022-08-06T07:08:32.136Z,1.80
2022-08-06T07:11:07.657Z,1.90
2022-08-06T07:13:47.638Z,2.10
2022-08-06T07:16:35.825Z,1.90
2022-08-06T07:19:08.573Z,1.70
2022-08-06T07:21:51.501Z,2.20
2022-08-06T07:24:38.294Z,2.40
2022-08-06T07:27:14.395Z,1.30
2022-08-06T07:29:49.599Z,2.00
2022-08-06T07:32:35.576Z,1.80
2022-08-06T07:35:14.429Z,2.20
2022-08-06T07:37:52.186Z,2.30
2022-08-06T07:40:33.581Z,1.50
2022-08-06T07:43:21.553Z,2.00
2022-08-06T07:45:55.251Z,1.40
2022-08-06T07:48:38.009Z,1.60
2022-08-06T07:51:07.414Z,2.10
2022-08-06T07:53:57.659Z,1.70
2022-08-06T07:56:29.920Z,1.70
2022-08-06T07:59:01.348Z,1.80
2022-08-06T08:01:36.976Z,1.50
2022-08-06T08:04:34.203Z,1.70
2022-08-06T08:07:09.656Z,1.70
2022-08-06T08:10:02.632Z,1.60
2022-08-06T08:12:36.317Z,1.50
2022-08-06T08:15:18.481Z,2.30
2022-08-06T08:17:57.783Z,2.20
2022-08-06T08:20:34.322Z,1.70
2022-08-06T08:23:29.608Z,1.60
2022-08-06T08:25:59.585Z,1.90
2022-08-06T08:28:28.281Z,1.90
2022-08-06T08:31:11.229Z,1.60
2022-08-06T08:33:48.823Z,1.60
2022-08-06T08:36:17.914Z,1.20
2022-08-06T08:38:46.059Z,1.30
2022-08-06T08:41:48.407Z,1.90
2022-08-06T08:44:15.135Z,1.90
2022-08-06T08:46:57.920Z,2.00
2022-08-06T08:49:47.992Z,1.80
2022-08-06T08:52:21.365Z,1.40
2022-08-06T08:54:52.575Z,1.50
2022-08-06T08:58:41.772Z,1.70
2022-08-06T09:00:12.551Z,1.80
2022-08-06T09:02:52.143Z,1.30
2022-08-06T09:05:22.318Z,1.90
2022-08-06T09:08:00.833Z,2.30
2022-08-06T09:10:33.305Z,1.40
2022-08-06T09:13:22.791Z,2.30
2022-08-06T09:16:02.560Z,1.40
2022-08-06T09:18:32.471Z,1.40
2022-08-06T09:21:11.696Z,1.30
2022-08-06T09:23:49.397Z,1.50
2022-08-06T09:26:52.817Z,1.70
2022-08-06T09:29:33.691Z,1.20
2022-08-06T09:32:15.535Z,1.40
2022-08-06T09:34:50.768Z,1.70
2022-08-06T09:37:30.288Z,1.40
2022-08-06T09:40:22.560Z,1.50
2022-08-06T09:42:51.991Z,1.20
2022-08-06T09:45:42.665Z,1.20
2022-08-06T09:48:17.064Z,1.20
2022-08-06T09:50:51.069Z,1.50
2022-08-06T09:53:21.916Z,1.90
2022-08-06T09:55:53.296Z,1.10
2022-08-06T09:58:38.636Z,1.40
2022-08-06T10:01:22.770Z,1.30
2022-08-06T10:04:02.395Z,1.40
2022-08-06T10:06:42.538Z,1.40
2022-08-06T10:09:41.795Z,1.40
2022-08-06T10:12:01.624Z,1.30
2022-08-06T10:14:34.761Z,1.20
2022-08-06T10:17:22.170Z,1.10
2022-08-06T10:20:12.101Z,1.10
2022-08-06T10:23:10.889Z,1.30
2022-08-06T10:25:46.227Z,5.40
2022-08-06T10:28:15.215Z,1.30
2022-08-06T10:30:44.915Z,1.10
2022-08-06T10:33:18.318Z,1.00
2022-08-06T10:36:04.033Z,1.10
2022-08-06T10:38:45.763Z,1.20
2022-08-06T10:41:28.108Z,1.30
2022-08-06T10:44:12.415Z,1.20
2022-08-06T10:46:44.933Z,1.60
2022-08-06T10:50:34.011Z,1.10
2022-08-06T10:52:07.356Z,1.10
2022-08-06T10:54:41.023Z,1.10
2022-08-06T10:57:36.245Z,1.20
2022-08-06T11:00:12.426Z,1.10
2022-08-06T11:02:57.336Z,0.90
2022-08-06T11:05:48.054Z,1.00
2022-08-06T11:08:40.109Z,0.90
2022-08-06T11:12:05.639Z,1.30
2022-08-06T11:14:42.561Z,0.70
2022-08-06T11:17:12.020Z,1.00
2022-08-06T11:19:57.906Z,0.90
2022-08-06T11:22:43.289Z,1.10
2022-08-06T11:25:45.204Z,1.10
2022-08-06T11:28:15.447Z,0.90
2022-08-06T11:30:47.877Z,1.30
2022-08-06T11:33:22.678Z,1.10
2022-08-06T11:35:54.282Z,0.90
2022-08-06T11:38:53.484Z,1.40
2022-08-06T11:41:54.928Z,1.30
2022-08-06T11:44:34.207Z,1.00
2022-08-06T11:47:15.513Z,1.10
2022-08-06T11:49:47.312Z,1.10
2022-08-06T11:52:39.840Z,1.40
2022-08-06T11:55:23.110Z,1.10
2022-08-06T11:58:41.153Z,1.00
2022-08-06T12:01:33.398Z,3.20
2022-08-06T12:04:02.415Z,1.20
2022-08-06T12:06:31.995Z,1.40
2022-08-06T12:09:23.332Z,1.40
2022-08-06T12:12:31.626Z,3.20
2022-08-06T12:15:20.160Z,2.50
2022-08-06T12:18:20.732Z,1.80
2022-08-06T12:21:07.758Z,1.20
2022-08-06T12:23:54.648Z,1.10
2022-08-06T12:26:33.795Z,1.20
2022-08-06T12:29:11.296Z,1.00
2022-08-06T12:31:51.852Z,2.30
2022-08-06T12:34:31.424Z,1.80
2022-08-06T12:37:04.722Z,1.40
2022-08-06T12:39:59.777Z,1.70
2022-08-06T12:43:14.347Z,1.10
2022-08-06T12:46:07.647Z,1.40
2022-08-06T12:48:49.948Z,1.00
2022-08-06T12:51:22.042Z,1.20
2022-08-06T12:54:01.086Z,1.70
2022-08-06T12:56:39.581Z,1.30
2022-08-06T12:59:15.946Z,1.10
2022-08-06T13:02:08.736Z,1.30
2022-08-06T13:04:46.691Z,1.30
2022-08-06T13:07:20.479Z,1.10
2022-08-06T13:10:32.749Z,1.70
2022-08-06T13:14:02.086Z,1.10
2022-08-06T13:15:31.729Z,1.10
2022-08-06T13:18:41.845Z,1.20
2022-08-06T13:21:56.151Z,1.40
2022-08-06T13:24:31.107Z,1.30
2022-08-06T13:27:05.717Z,1.00
2022-08-06T13:30:33.011Z,1.30
2022-08-06T13:32:33.554Z,1.00
2022-08-06T13:35:17.985Z,1.60
2022-08-06T13:37:57.482Z,1.10
2022-08-06T13:40:57.538Z,1.60
2022-08-06T13:43:55.310Z,1.10
2022-08-06T13:46:51.360Z,1.00
2022-08-06T13:49:21.870Z,1.00
2022-08-06T13:51:54.377Z,1.20
2022-08-06T13:54:33.659Z,1.00
2022-08-06T13:57:07.632Z,1.10
2022-08-06T13:59:41.371Z,1.40
2022-08-06T14:02:13.773Z,1.10
2022-08-06T14:04:50.046Z,1.60
2022-08-06T14:07:23.345Z,1.00
2022-08-06T14:10:09.231Z,0.90
2022-08-06T14:13:05.999Z,1.10
2022-08-06T14:15:42.076Z,1.00
2022-08-06T14:18:12.742Z,0.90
2022-08-06T14:20:42.175Z,1.30
2022-08-06T14:23:12.685Z,1.20
2022-08-06T14:25:59.919Z,0.80
2022-08-06T14:28:36.038Z,1.00
2022-08-06T14:31:16.645Z,0.80
2022-08-06T14:33:47.737Z,0.90
2022-08-06T14:36:35.987Z,1.10
2022-08-06T14:39:28.707Z,1.60
2022-08-06T14:42:19.534Z,1.30
2022-08-06T14:44:58.639Z,1.00
2022-08-06T14:47:58.191Z,0.80
2022-08-06T14:50:38.062Z,1.10
2022-08-06T14:53:16.398Z,0.90
2022-08-06T14:56:06.865Z,1.20
2022-08-06T14:58:35.793Z,1.30
2022-08-06T15:01:03.988Z,0.90
2022-08-06T15:03:48.227Z,0.90
2022-08-06T15:06:18.424Z,0.80
2022-08-06T15:08:48.638Z,0.90
2022-08-06T15:11:18.363Z,0.90
2022-08-06T15:13:51.559Z,0.80
2022-08-06T15:17:01.146Z,0.90
2022-08-06T15:19:20.061Z,0.70
2022-08-06T15:22:00.139Z,0.90
2022-08-06T15:24:29.791Z,1.10
2022-08-06T15:26:57.821Z,1.00
2022-08-06T15:29:26.125Z,1.00
2022-08-06T15:31:57.709Z,0.90
2022-08-06T15:34:30.583Z,0.80
2022-08-06T15:37:01.246Z,1.00
2022-08-06T15:39:52.402Z,1.10
2022-08-06T15:42:24.195Z,0.90
2022-08-06T15:44:54.220Z,0.70
2022-08-06T15:47:32.322Z,1.00
2022-08-06T15:50:09.988Z,0.70
2022-08-06T15:52:44.013Z,0.90
2022-08-06T15:55:15.417Z,0.40
2022-08-06T15:58:04.369Z,0.80
2022-08-06T16:00:44.249Z,0.90
2022-08-06T16:03:31.979Z,1.10
2022-08-06T16:06:12.298Z,0.90
2022-08-06T16:08:47.891Z,0.90
2022-08-06T16:11:20.973Z,0.80
2022-08-06T16:13:53.995Z,0.70
2022-08-06T16:16:33.311Z,0.80
2022-08-06T16:19:02.962Z,1.00
2022-08-06T16:21:33.988Z,1.10
2022-08-06T16:24:05.461Z,1.00
2022-08-06T16:26:42.960Z,1.00
2022-08-06T16:29:17.758Z,0.60
2022-08-06T16:31:53.650Z,0.80
2022-08-06T16:34:23.029Z,0.80
2022-08-06T16:36:53.433Z,0.60
2022-08-06T16:42:10.540Z,0.80
2022-08-06T16:44:56.924Z,1.00
2022-08-06T16:48:03.941Z,0.90
2022-08-06T16:50:18.409Z,0.70
2022-08-06T16:54:14.070Z,1.10
2022-08-06T16:55:42.575Z,0.60
2022-08-06T16:58:16.725Z,0.90
2022-08-06T17:02:20.446Z,0.80
2022-08-06T17:03:59.031Z,0.60
2022-08-06T17:06:31.530Z,1.20
2022-08-06T17:09:16.139Z,1.40
2022-08-06T17:11:52.020Z,1.40
2022-08-06T17:17:15.878Z,0.70
2022-08-06T17:19:44.213Z,1.10
2022-08-06T17:22:30.605Z,1.10
2022-08-06T17:24:59.644Z,1.30
2022-08-06T17:27:44.530Z,1.30
2022-08-06T17:30:17.083Z,1.00
2022-08-06T17:32:54.399Z,1.30
2022-08-06T17:35:22.694Z,2.50
2022-08-06T17:37:51.884Z,1.10
2022-08-06T17:43:22.809Z,1.20
2022-08-06T17:46:25.287Z,1.00
2022-08-06T17:48:48.479Z,1.50
2022-08-06T17:51:21.033Z,1.00
2022-08-06T17:53:53.638Z,1.50
2022-08-06T17:56:30.356Z,1.30
2022-08-06T17:59:17.145Z,1.80
2022-08-06T18:01:50.772Z,2.40
2022-08-06T18:04:30.173Z,2.80
2022-08-06T18:07:10.358Z,2.10
2022-08-06T18:10:08.591Z,2.30
2022-08-06T18:12:29.734Z,2.20
2022-08-06T18:15:01.027Z,1.70
2022-08-06T18:17:59.230Z,1.90
2022-08-06T18:20:28.615Z,1.40
2022-08-06T18:25:54.808Z,3.60
2022-08-06T18:28:27.269Z,2.70
2022-08-06T18:31:10.035Z,1.70
2022-08-06T18:33:42.509Z,1.20
2022-08-06T18:36:15.627Z,1.80
2022-08-06T18:38:45.368Z,1.90
2022-08-06T18:41:16.595Z,2.40
2022-08-06T18:43:54.829Z,2.40
2022-08-06T18:46:55.548Z,1.80
2022-08-06T18:49:32.715Z,2.00
2022-08-06T18:52:24.444Z,2.20
2022-08-06T18:55:17.500Z,2.30
2022-08-06T18:58:05.035Z,1.70
2022-08-06T19:00:34.845Z,1.60
2022-08-06T19:03:15.696Z,1.70
2022-08-06T19:06:00.954Z,1.60
2022-08-06T19:08:29.961Z,1.60
2022-08-06T19:11:00.948Z,1.70
2022-08-06T19:14:16.206Z,2.40
2022-08-06T19:16:27.042Z,2.80
2022-08-06T19:18:58.373Z,2.90
2022-08-06T19:21:27.921Z,2.80
2022-08-06T19:24:07.163Z,2.30
2022-08-06T19:26:57.815Z,1.90
2022-08-06T19:29:57.800Z,1.80
2022-08-06T19:32:28.434Z,2.10
2022-08-06T19:34:59.407Z,1.80
2022-08-06T19:40:38.294Z,3.30
2022-08-06T19:44:26.549Z,4.10
2022-08-06T19:46:30.011Z,3.40
2022-08-06T19:48:45.010Z,40.70
2022-08-06T19:52:01.458Z,26.40
2022-08-06T19:54:05.470Z,11.70
2022-08-06T19:56:34.164Z,9.10
2022-08-06T20:00:56.148Z,7.90
2022-08-06T20:02:09.276Z,10.60
2022-08-06T20:04:53.267Z,6.90
2022-08-06T20:08:46.979Z,5.30
2022-08-06T20:11:00.424Z,4.00
2022-08-06T20:13:29.467Z,3.40
2022-08-06T20:16:00.088Z,3.30
2022-08-06T20:18:30.182Z,2.80
2022-08-06T20:21:03.299Z,2.80
2022-08-06T20:23:40.667Z,2.20
2022-08-06T20:26:34.855Z,2.40
2022-08-06T20:29:10.361Z,2.30
2022-08-06T20:31:55.358Z,2.10
2022-08-06T20:34:29.397Z,2.40
2022-08-06T20:36:59.103Z,3.20
2022-08-06T20:39:37.173Z,2.60
2022-08-06T20:42:08.319Z,3.20
2022-08-06T20:44:51.630Z,3.20
2022-08-06T20:47:45.629Z,2.70
2022-08-06T20:50:19.888Z,2.40
2022-08-06T20:52:49.509Z,2.60
2022-08-06T20:55:17.927Z,3.20
2022-08-06T20:57:50.734Z,3.00
2022-08-06T21:00:28.056Z,3.20
2022-08-06T21:03:28.520Z,2.80
2022-08-06T21:05:50.674Z,3.50
2022-08-06T21:08:26.279Z,2.60
2022-08-06T21:11:00.361Z,2.30
2022-08-06T21:13:36.166Z,2.40
2022-08-06T21:16:28.528Z,1.90
2022-08-06T21:18:58.233Z,2.30
2022-08-06T21:21:31.417Z,2.60
2022-08-06T21:24:03.167Z,2.30
2022-08-06T21:26:35.421Z,2.10
2022-08-06T21:30:07.300Z,1.80
2022-08-06T21:31:57.302Z,2.20
2022-08-06T21:34:37.454Z,2.10
2022-08-06T21:37:21.244Z,2.50
2022-08-06T21:39:58.419Z,2.30
2022-08-06T21:42:26.664Z,2.40
2022-08-06T21:44:59.512Z,2.40
2022-08-06T21:47:32.967Z,2.00
2022-08-06T21:50:24.905Z,2.00
2022-08-06T21:52:54.269Z,2.20
2022-08-06T21:56:36.763Z,2.80
2022-08-06T21:58:10.784Z,2.10
2022-08-06T22:00:46.654Z,2.80
2022-08-06T22:04:51.479Z,2.40
2022-08-06T22:06:20.196Z,1.70
2022-08-06T22:08:55.051Z,2.40
2022-08-06T22:12:40.369Z,2.60
2022-08-06T22:14:16.530Z,4.40
2022-08-06T22:16:48.423Z,2.80
2022-08-06T22:19:17.753Z,2.50
2022-08-06T22:21:51.191Z,3.00
2022-08-06T22:24:23.459Z,2.70
2022-08-06T22:26:56.303Z,2.30
2022-08-06T22:29:27.911Z,2.70
2022-08-06T22:31:59.687Z,2.80
2022-08-06T22:34:30.967Z,2.60
2022-08-06T22:37:14.603Z,2.80
2022-08-06T22:39:46.718Z,2.50
2022-08-06T22:42:20.791Z,2.70
2022-08-06T22:45:47.950Z,3.20
2022-08-06T22:47:55.826Z,2.50
2022-08-06T22:50:32.894Z,2.60
2022-08-06T22:54:25.466Z,2.20
2022-08-06T22:55:51.147Z,2.20
2022-08-06T22:59:05.008Z,2.50
2022-08-06T23:01:08.672Z,2.80
2022-08-06T23:03:49.415Z,2.60
2022-08-06T23:06:28.953Z,2.40
2022-08-06T23:09:00.107Z,3.00
2022-08-06T23:11:28.653Z,2.50
2022-08-06T23:13:56.831Z,2.70
2022-08-06T23:16:34.833Z,2.20
2022-08-06T23:19:10.010Z,2.20
2022-08-06T23:21:50.876Z,2.70
2022-08-06T23:24:35.594Z,2.90
2022-08-06T23:27:08.760Z,2.50
2022-08-06T23:30:09.216Z,2.40
2022-08-06T23:32:40.961Z,2.50
2022-08-06T23:35:35.253Z,2.40
2022-08-06T23:38:26.744Z,3.50
2022-08-06T23:40:50.092Z,3.10
2022-08-06T23:43:19.769Z,3.50
2022-08-06T23:45:48.475Z,4.10
2022-08-06T23:48:22.594Z,3.60
2022-08-06T23:50:54.294Z,3.30
2022-08-06T23:54:07.882Z,3.50
2022-08-06T23:56:14.820Z,3.00
2022-08-06T23:58:48.593Z,3.60
